< Typhoon 199221 1992 Season Typhoon 199223 >
Typhoon 199222 (YVETTE)
General InformationTrack Information on Google MapsDetailed Wind InformationList of All Images || Disaster Info.ResourceGoogle EarthGE AnimationAtom FeedGeoJSON
Detalied Best Track (Time Zone = UTC)
Year Month Day Hour Lat. Long. Pressure (hPa) Wind (kt) Class Image Chart
1992 10 7 00 16.0 133.5 1006 0 2 Image Chart
1992 10 7 06 16.0 133.0 1006 0 2 Image Chart
1992 10 7 12 16.0 132.5 1006 0 2 Image Chart
1992 10 7 18 16.0 132.0 1004 0 2 Image Chart
1992 10 8 00 16.0 131.4 1004 0 2 Image Chart
1992 10 8 06 15.9 130.7 1002 0 2 Image Chart
1992 10 8 12 15.8 129.9 1000 35 3 Image Chart
1992 10 8 18 15.6 129.0 998 40 3 Image Chart
1992 10 9 00 15.3 128.0 992 45 3 Image Chart
1992 10 9 06 15.2 127.0 985 50 4 Image Chart
1992 10 9 12 15.2 126.1 980 55 4 Image Chart
1992 10 9 18 15.2 125.6 980 55 4 Image Chart
1992 10 10 00 15.3 125.4 975 60 4 Image Chart
1992 10 10 06 15.5 125.7 965 70 5 Image Chart
1992 10 10 12 15.7 125.9 950 80 5 Image Chart
1992 10 10 18 15.9 125.8 940 85 5 Image Chart
1992 10 11 00 15.7 125.8 930 90 5 Image Chart
1992 10 11 06 15.8 126.1 930 90 5 Image Chart
1992 10 11 12 15.9 126.3 930 90 5 Image Chart
1992 10 11 18 16.2 126.5 935 90 5 Image Chart
1992 10 12 00 16.6 126.8 940 85 5 Image Chart
1992 10 12 06 16.9 127.2 940 85 5 Image Chart
1992 10 12 12 17.2 127.6 940 85 5 Image Chart
1992 10 12 18 17.5 128.1 940 85 5 Image Chart
1992 10 13 00 17.8 128.5 935 90 5 Image Chart
1992 10 13 06 18.1 128.9 930 90 5 Image Chart
1992 10 13 12 18.7 129.2 925 95 5 Image Chart
1992 10 13 18 19.1 129.4 920 100 5 Image Chart
1992 10 14 00 19.7 129.3 915 100 5 Image Chart
1992 10 14 06 20.2 129.5 915 100 5 Image Chart
1992 10 14 12 20.9 130.0 915 100 5 Image Chart
1992 10 14 18 21.5 130.6 920 100 5 Image Chart
1992 10 15 00 22.1 131.4 920 100 5 Image Chart
1992 10 15 06 22.6 132.0 925 95 5 Image Chart
1992 10 15 12 23.2 132.9 930 90 5 Image Chart
1992 10 15 18 24.1 133.8 935 90 5 Image Chart
1992 10 16 00 25.1 134.9 940 85 5 Image Chart
1992 10 16 06 26.2 136.3 945 85 5 Image Chart
1992 10 16 12 27.1 137.8 950 80 5 Image Chart
1992 10 16 15 27.5 138.5 955 80 5 Image Chart
1992 10 16 18 27.9 139.5 960 75 5 Image Chart
1992 10 16 21 28.3 140.1 965 70 5 Image Chart
1992 10 17 00 28.7 140.7 965 70 5 Image Chart
1992 10 17 03 29.1 141.3 970 65 5 Image Chart
1992 10 17 06 29.5 141.9 970 65 5 Image Chart
1992 10 17 09 29.9 142.5 975 60 4 Image Chart
1992 10 17 12 30.3 143.0 980 55 4 Image Chart
1992 10 17 18 31.0 145.0 990 45 3 Image Chart
1992 10 18 00 31.5 147.0 998 0 6 Image Chart
1992 10 18 06 32.0 149.0 1004 0 6 Image Chart
1992 10 18 12 33.0 152.0 1006 0 6 Image Chart
1992 10 18 18 34.0 154.0 1008 0 6 Image Chart
Japan Meteorological Agency Best Track Data | Correction Date : 1992-12-25
< Typhoon 199221 1992 Season Typhoon 199223 >

Help